sensor_id;sensor_type;location;lat;lon;timestamp;temperature;humidity
1411;DHT22;700;51.906;8.404;2023-01-16T00:00:46;7.00;99.90
1411;DHT22;700;51.906;8.404;2023-01-16T00:05:46;6.80;99.90
1411;DHT22;700;51.906;8.404;2023-01-16T00:10:50;6.80;99.90
1411;DHT22;700;51.906;8.404;2023-01-16T00:15:51;6.80;99.90
1411;DHT22;700;51.906;8.404;2023-01-16T00:20:54;6.80;99.90
1411;DHT22;700;51.906;8.404;2023-01-16T00:25:55;6.80;99.90
1411;DHT22;700;51.906;8.404;2023-01-16T00:30:56;6.80;99.90
1411;DHT22;700;51.906;8.404;2023-01-16T00:35:56;6.60;99.90
1411;DHT22;700;51.906;8.404;2023-01-16T00:40:59;6.80;99.90
1411;DHT22;700;51.906;8.404;2023-01-16T00:46:03;6.90;99.90
1411;DHT22;700;51.906;8.404;2023-01-16T00:51:04;6.80;99.90
1411;DHT22;700;51.906;8.404;2023-01-16T00:56:05;6.70;99.90
1411;DHT22;700;51.906;8.404;2023-01-16T01:01:06;6.50;99.90
1411;DHT22;700;51.906;8.404;2023-01-16T01:06:10;6.70;99.90
1411;DHT22;700;51.906;8.404;2023-01-16T01:11:16;6.60;99.90
1411;DHT22;700;51.906;8.404;2023-01-16T01:16:17;6.80;99.90
1411;DHT22;700;51.906;8.404;2023-01-16T01:21:18;6.60;99.90
1411;DHT22;700;51.906;8.404;2023-01-16T01:26:18;6.50;99.90
1411;DHT22;700;51.906;8.404;2023-01-16T01:31:21;6.60;99.90
1411;DHT22;700;51.906;8.404;2023-01-16T01:36:27;6.70;99.90
1411;DHT22;700;51.906;8.404;2023-01-16T01:41:29;6.60;99.90
1411;DHT22;700;51.906;8.404;2023-01-16T01:46:39;6.50;99.90
1411;DHT22;700;51.906;8.404;2023-01-16T01:51:41;6.50;99.90
1411;DHT22;700;51.906;8.404;2023-01-16T02:01:55;6.50;99.90
1411;DHT22;700;51.906;8.404;2023-01-16T02:07:08;6.60;99.90
1411;DHT22;700;51.906;8.404;2023-01-16T02:12:11;6.50;99.90
1411;DHT22;700;51.906;8.404;2023-01-16T02:17:16;6.30;99.90
1411;DHT22;700;51.906;8.404;2023-01-16T02:22:51;6.30;99.90
1411;DHT22;700;51.906;8.404;2023-01-16T02:49:43;6.20;99.90
1411;DHT22;700;51.906;8.404;2023-01-16T02:55:16;6.10;99.90
1411;DHT22;700;51.906;8.404;2023-01-16T03:00:14;6.30;99.90
1411;DHT22;700;51.906;8.404;2023-01-16T03:05:19;6.10;99.90
1411;DHT22;700;51.906;8.404;2023-01-16T03:11:00;6.20;99.90
1411;DHT22;700;51.906;8.404;2023-01-16T03:26:46;6.30;99.90
1411;DHT22;700;51.906;8.404;2023-01-16T03:32:11;6.40;99.90
1411;DHT22;700;51.906;8.404;2023-01-16T03:37:36;6.20;99.90
1411;DHT22;700;51.906;8.404;2023-01-16T03:42:50;6.40;99.90
1411;DHT22;700;51.906;8.404;2023-01-16T03:48:05;6.30;99.90
1411;DHT22;700;51.906;8.404;2023-01-16T03:53:11;6.30;99.90
1411;DHT22;700;51.906;8.404;2023-01-16T03:58:24;6.10;99.90
1411;DHT22;700;51.906;8.404;2023-01-16T04:03:41;5.90;99.90
1411;DHT22;700;51.906;8.404;2023-01-16T04:08:45;5.70;99.90
1411;DHT22;700;51.906;8.404;2023-01-16T04:13:51;5.80;99.90
1411;DHT22;700;51.906;8.404;2023-01-16T04:18:55;5.70;99.90
1411;DHT22;700;51.906;8.404;2023-01-16T04:23:58;6.00;99.90
1411;DHT22;700;51.906;8.404;2023-01-16T04:29:02;6.00;99.90
1411;DHT22;700;51.906;8.404;2023-01-16T04:34:03;6.20;99.90
1411;DHT22;700;51.906;8.404;2023-01-16T04:39:03;6.30;99.90
1411;DHT22;700;51.906;8.404;2023-01-16T04:44:06;6.40;99.90
1411;DHT22;700;51.906;8.404;2023-01-16T04:49:07;6.40;99.90
1411;DHT22;700;51.906;8.404;2023-01-16T04:54:13;6.70;99.90
1411;DHT22;700;51.906;8.404;2023-01-16T04:59:14;6.80;99.90
1411;DHT22;700;51.906;8.404;2023-01-16T05:04:18;6.40;99.90
1411;DHT22;700;51.906;8.404;2023-01-16T05:09:20;6.30;99.90
1411;DHT22;700;51.906;8.404;2023-01-16T05:14:21;6.20;99.90
1411;DHT22;700;51.906;8.404;2023-01-16T05:19:21;6.10;99.90
1411;DHT22;700;51.906;8.404;2023-01-16T05:24:24;6.10;99.90
1411;DHT22;700;51.906;8.404;2023-01-16T05:29:27;6.00;99.90
1411;DHT22;700;51.906;8.404;2023-01-16T05:34:28;5.90;99.90
1411;DHT22;700;51.906;8.404;2023-01-16T05:39:29;5.70;99.90
1411;DHT22;700;51.906;8.404;2023-01-16T05:44:32;5.90;99.90
1411;DHT22;700;51.906;8.404;2023-01-16T05:49:32;5.90;99.90
1411;DHT22;700;51.906;8.404;2023-01-16T05:54:33;6.00;99.90
1411;DHT22;700;51.906;8.404;2023-01-16T05:59:34;6.00;99.90
1411;DHT22;700;51.906;8.404;2023-01-16T06:04:34;5.90;99.90
1411;DHT22;700;51.906;8.404;2023-01-16T06:09:37;6.00;99.90
1411;DHT22;700;51.906;8.404;2023-01-16T06:14:38;6.00;99.90
1411;DHT22;700;51.906;8.404;2023-01-16T06:19:38;6.10;99.90
1411;DHT22;700;51.906;8.404;2023-01-16T06:24:39;6.20;99.90
1411;DHT22;700;51.906;8.404;2023-01-16T06:29:42;6.00;99.90
1411;DHT22;700;51.906;8.404;2023-01-16T06:34:43;6.00;99.90
1411;DHT22;700;51.906;8.404;2023-01-16T06:39:46;6.00;99.90
1411;DHT22;700;51.906;8.404;2023-01-16T06:44:47;6.20;99.90
1411;DHT22;700;51.906;8.404;2023-01-16T06:49:48;6.20;99.90
1411;DHT22;700;51.906;8.404;2023-01-16T06:54:50;5.80;99.90
1411;DHT22;700;51.906;8.404;2023-01-16T06:59:53;5.90;99.90
1411;DHT22;700;51.906;8.404;2023-01-16T07:04:56;6.00;99.90
1411;DHT22;700;51.906;8.404;2023-01-16T07:09:56;5.80;99.90
1411;DHT22;700;51.906;8.404;2023-01-16T07:14:59;6.20;99.90
1411;DHT22;700;51.906;8.404;2023-01-16T07:20:18;6.10;99.90
1411;DHT22;700;51.906;8.404;2023-01-16T07:25:38;6.40;99.90
1411;DHT22;700;51.906;8.404;2023-01-16T07:30:39;6.40;99.90
1411;DHT22;700;51.906;8.404;2023-01-16T07:35:44;6.50;99.90
1411;DHT22;700;51.906;8.404;2023-01-16T07:40:45;6.60;99.90
1411;DHT22;700;51.906;8.404;2023-01-16T07:45:46;6.70;99.90
1411;DHT22;700;51.906;8.404;2023-01-16T07:50:54;6.40;99.90
1411;DHT22;700;51.906;8.404;2023-01-16T07:56:00;6.30;99.90
1411;DHT22;700;51.906;8.404;2023-01-16T08:01:03;6.50;99.90
1411;DHT22;700;51.906;8.404;2023-01-16T08:06:09;6.50;99.90
1411;DHT22;700;51.906;8.404;2023-01-16T08:11:09;6.20;99.90
1411;DHT22;700;51.906;8.404;2023-01-16T08:16:28;6.10;99.90
1411;DHT22;700;51.906;8.404;2023-01-16T08:21:31;6.30;99.90
1411;DHT22;700;51.906;8.404;2023-01-16T08:26:32;6.30;99.90
1411;DHT22;700;51.906;8.404;2023-01-16T08:31:33;6.50;99.90
1411;DHT22;700;51.906;8.404;2023-01-16T08:36:33;6.50;99.90
1411;DHT22;700;51.906;8.404;2023-01-16T08:41:37;6.50;99.90
1411;DHT22;700;51.906;8.404;2023-01-16T08:52:39;6.50;99.90
1411;DHT22;700;51.906;8.404;2023-01-16T08:57:39;6.80;99.90
1411;DHT22;700;51.906;8.404;2023-01-16T09:02:42;7.00;99.90
1411;DHT22;700;51.906;8.404;2023-01-16T09:07:43;6.90;99.90
1411;DHT22;700;51.906;8.404;2023-01-16T09:12:46;6.70;99.90
1411;DHT22;700;51.906;8.404;2023-01-16T09:18:19;7.00;99.90
1411;DHT22;700;51.906;8.404;2023-01-16T09:23:19;7.00;99.90
1411;DHT22;700;51.906;8.404;2023-01-16T09:28:20;6.80;99.90
1411;DHT22;700;51.906;8.404;2023-01-16T09:33:23;6.90;99.90
1411;DHT22;700;51.906;8.404;2023-01-16T09:38:26;7.00;99.90
1411;DHT22;700;51.906;8.404;2023-01-16T09:43:39;7.30;99.90
1411;DHT22;700;51.906;8.404;2023-01-16T09:49:31;7.20;99.90
1411;DHT22;700;51.906;8.404;2023-01-16T09:54:20;7.20;99.90
1411;DHT22;700;51.906;8.404;2023-01-16T09:59:46;7.30;99.90
1411;DHT22;700;51.906;8.404;2023-01-16T10:04:49;7.40;99.90
1411;DHT22;700;51.906;8.404;2023-01-16T10:15:32;7.20;99.90
1411;DHT22;700;51.906;8.404;2023-01-16T10:20:54;7.20;99.90
1411;DHT22;700;51.906;8.404;2023-01-16T10:26:10;7.40;99.90
1411;DHT22;700;51.906;8.404;2023-01-16T10:31:18;7.40;99.90
1411;DHT22;700;51.906;8.404;2023-01-16T10:36:21;7.70;99.90
1411;DHT22;700;51.906;8.404;2023-01-16T10:41:33;7.80;99.90
1411;DHT22;700;51.906;8.404;2023-01-16T10:46:53;7.70;99.90
1411;DHT22;700;51.906;8.404;2023-01-16T10:52:12;7.60;99.90
1411;DHT22;700;51.906;8.404;2023-01-16T10:57:19;7.60;99.90
1411;DHT22;700;51.906;8.404;2023-01-16T11:02:30;7.60;99.90
1411;DHT22;700;51.906;8.404;2023-01-16T11:07:33;7.40;99.90
1411;DHT22;700;51.906;8.404;2023-01-16T11:12:34;7.50;99.90
1411;DHT22;700;51.906;8.404;2023-01-16T11:17:54;7.60;99.90
1411;DHT22;700;51.906;8.404;2023-01-16T11:23:24;7.80;99.90
1411;DHT22;700;51.906;8.404;2023-01-16T11:28:31;7.60;99.90
1411;DHT22;700;51.906;8.404;2023-01-16T11:33:45;7.60;99.90
1411;DHT22;700;51.906;8.404;2023-01-16T11:38:49;7.20;99.90
1411;DHT22;700;51.906;8.404;2023-01-16T11:44:17;7.30;99.90
1411;DHT22;700;51.906;8.404;2023-01-16T11:49:51;7.30;99.90
1411;DHT22;700;51.906;8.404;2023-01-16T11:54:52;7.10;99.90
1411;DHT22;700;51.906;8.404;2023-01-16T12:00:11;7.10;99.90
1411;DHT22;700;51.906;8.404;2023-01-16T12:05:29;7.20;99.90
1411;DHT22;700;51.906;8.404;2023-01-16T12:21:32;7.30;99.90
1411;DHT22;700;51.906;8.404;2023-01-16T12:26:46;7.30;99.90
1411;DHT22;700;51.906;8.404;2023-01-16T12:37:05;7.10;99.90
1411;DHT22;700;51.906;8.404;2023-01-16T12:42:25;7.40;99.90
1411;DHT22;700;51.906;8.404;2023-01-16T12:58:22;7.20;99.90
1411;DHT22;700;51.906;8.404;2023-01-16T13:03:37;7.50;99.90
1411;DHT22;700;51.906;8.404;2023-01-16T13:08:50;7.60;99.90
1411;DHT22;700;51.906;8.404;2023-01-16T13:14:03;7.50;99.90
1411;DHT22;700;51.906;8.404;2023-01-16T13:19:26;7.60;99.90
1411;DHT22;700;51.906;8.404;2023-01-16T13:24:41;7.60;99.90
1411;DHT22;700;51.906;8.404;2023-01-16T13:30:19;7.60;99.90
1411;DHT22;700;51.906;8.404;2023-01-16T13:35:37;8.00;99.90
1411;DHT22;700;51.906;8.404;2023-01-16T13:46:07;9.90;99.90
1411;DHT22;700;51.906;8.404;2023-01-16T13:51:13;9.60;99.90
1411;DHT22;700;51.906;8.404;2023-01-16T13:56:23;8.80;99.90
1411;DHT22;700;51.906;8.404;2023-01-16T14:06:52;7.90;99.90
1411;DHT22;700;51.906;8.404;2023-01-16T14:12:20;7.80;99.90
1411;DHT22;700;51.906;8.404;2023-01-16T14:17:59;7.60;99.90
1411;DHT22;700;51.906;8.404;2023-01-16T14:22:50;7.30;99.90
1411;DHT22;700;51.906;8.404;2023-01-16T14:28:16;7.30;99.90
1411;DHT22;700;51.906;8.404;2023-01-16T14:33:19;7.40;99.90
1411;DHT22;700;51.906;8.404;2023-01-16T14:38:23;7.20;99.90
1411;DHT22;700;51.906;8.404;2023-01-16T14:43:32;7.30;99.90
1411;DHT22;700;51.906;8.404;2023-01-16T14:48:51;7.10;99.90
1411;DHT22;700;51.906;8.404;2023-01-16T14:54:15;7.20;99.90
1411;DHT22;700;51.906;8.404;2023-01-16T14:59:37;7.00;99.90
1411;DHT22;700;51.906;8.404;2023-01-16T15:10:28;6.90;99.90
1411;DHT22;700;51.906;8.404;2023-01-16T15:15:30;7.20;99.90
1411;DHT22;700;51.906;8.404;2023-01-16T15:20:32;7.10;99.90
1411;DHT22;700;51.906;8.404;2023-01-16T15:31:18;6.90;99.90
1411;DHT22;700;51.906;8.404;2023-01-16T15:36:24;7.10;99.90
1411;DHT22;700;51.906;8.404;2023-01-16T15:41:31;6.80;99.90
1411;DHT22;700;51.906;8.404;2023-01-16T15:52:14;6.70;99.90
1411;DHT22;700;51.906;8.404;2023-01-16T15:57:18;6.80;99.90
1411;DHT22;700;51.906;8.404;2023-01-16T16:02:24;7.00;99.90
1411;DHT22;700;51.906;8.404;2023-01-16T16:07:27;7.10;99.90
1411;DHT22;700;51.906;8.404;2023-01-16T16:12:28;6.90;99.90
1411;DHT22;700;51.906;8.404;2023-01-16T16:17:34;7.00;99.90
1411;DHT22;700;51.906;8.404;2023-01-16T16:33:21;7.10;99.90
1411;DHT22;700;51.906;8.404;2023-01-16T16:38:46;7.00;99.90
1411;DHT22;700;51.906;8.404;2023-01-16T16:54:20;7.00;99.90
1411;DHT22;700;51.906;8.404;2023-01-16T16:59:28;6.90;99.90
1411;DHT22;700;51.906;8.404;2023-01-16T17:04:35;6.90;99.90
1411;DHT22;700;51.906;8.404;2023-01-16T17:09:36;7.20;99.90
1411;DHT22;700;51.906;8.404;2023-01-16T17:14:39;7.00;99.90
1411;DHT22;700;51.906;8.404;2023-01-16T17:19:43;6.90;99.90
1411;DHT22;700;51.906;8.404;2023-01-16T17:24:44;7.10;99.90
1411;DHT22;700;51.906;8.404;2023-01-16T17:29:44;7.00;99.90
1411;DHT22;700;51.906;8.404;2023-01-16T17:34:45;7.10;99.90
1411;DHT22;700;51.906;8.404;2023-01-16T17:39:46;6.90;99.90
1411;DHT22;700;51.906;8.404;2023-01-16T17:44:49;7.10;99.90
1411;DHT22;700;51.906;8.404;2023-01-16T17:50:09;7.40;99.90
1411;DHT22;700;51.906;8.404;2023-01-16T17:55:22;7.50;99.90
1411;DHT22;700;51.906;8.404;2023-01-16T18:00:43;7.30;99.90
1411;DHT22;700;51.906;8.404;2023-01-16T18:05:47;7.60;99.90
1411;DHT22;700;51.906;8.404;2023-01-16T18:10:50;7.30;99.90
1411;DHT22;700;51.906;8.404;2023-01-16T18:15:51;7.30;99.90
1411;DHT22;700;51.906;8.404;2023-01-16T18:21:20;7.50;99.90
1411;DHT22;700;51.906;8.404;2023-01-16T18:26:39;7.50;99.90
1411;DHT22;700;51.906;8.404;2023-01-16T18:31:42;7.50;99.90
1411;DHT22;700;51.906;8.404;2023-01-16T18:37:03;7.40;99.90
1411;DHT22;700;51.906;8.404;2023-01-16T18:42:08;7.40;99.90
1411;DHT22;700;51.906;8.404;2023-01-16T18:47:31;7.30;99.90
1411;DHT22;700;51.906;8.404;2023-01-16T18:52:50;7.30;99.90
1411;DHT22;700;51.906;8.404;2023-01-16T18:58:12;7.40;99.90
1411;DHT22;700;51.906;8.404;2023-01-16T19:03:52;7.30;99.90
1411;DHT22;700;51.906;8.404;2023-01-16T19:08:57;7.50;99.90
1411;DHT22;700;51.906;8.404;2023-01-16T19:13:58;7.60;99.90
1411;DHT22;700;51.906;8.404;2023-01-16T19:18:59;7.60;99.90
1411;DHT22;700;51.906;8.404;2023-01-16T19:24:00;7.40;99.90
1411;DHT22;700;51.906;8.404;2023-01-16T19:29:01;7.60;99.90
1411;DHT22;700;51.906;8.404;2023-01-16T19:34:02;7.50;99.90
1411;DHT22;700;51.906;8.404;2023-01-16T19:39:03;7.60;99.90
1411;DHT22;700;51.906;8.404;2023-01-16T19:44:04;7.50;99.90
1411;DHT22;700;51.906;8.404;2023-01-16T19:49:23;7.60;99.90
1411;DHT22;700;51.906;8.404;2023-01-16T19:54:26;7.40;99.90
1411;DHT22;700;51.906;8.404;2023-01-16T19:59:30;7.60;99.90
1411;DHT22;700;51.906;8.404;2023-01-16T20:04:37;7.70;99.90
1411;DHT22;700;51.906;8.404;2023-01-16T20:09:40;7.70;99.90
1411;DHT22;700;51.906;8.404;2023-01-16T20:14:41;7.70;99.90
1411;DHT22;700;51.906;8.404;2023-01-16T20:19:44;7.50;99.90
1411;DHT22;700;51.906;8.404;2023-01-16T20:24:46;7.20;99.90
1411;DHT22;700;51.906;8.404;2023-01-16T20:29:49;7.40;99.90
1411;DHT22;700;51.906;8.404;2023-01-16T20:34:50;7.20;99.90
1411;DHT22;700;51.906;8.404;2023-01-16T20:39:50;7.30;99.90
1411;DHT22;700;51.906;8.404;2023-01-16T20:44:52;7.00;99.90
1411;DHT22;700;51.906;8.404;2023-01-16T20:50:13;7.20;99.90
1411;DHT22;700;51.906;8.404;2023-01-16T20:55:14;7.10;99.90
1411;DHT22;700;51.906;8.404;2023-01-16T21:00:15;7.30;99.90
1411;DHT22;700;51.906;8.404;2023-01-16T21:05:16;7.30;99.90
1411;DHT22;700;51.906;8.404;2023-01-16T21:10:19;7.10;99.90
1411;DHT22;700;51.906;8.404;2023-01-16T21:15:20;6.90;99.90
1411;DHT22;700;51.906;8.404;2023-01-16T21:20:21;7.00;99.90
1411;DHT22;700;51.906;8.404;2023-01-16T21:25:40;6.80;99.90
1411;DHT22;700;51.906;8.404;2023-01-16T21:30:42;6.90;99.90
1411;DHT22;700;51.906;8.404;2023-01-16T21:35:42;7.00;99.90
1411;DHT22;700;51.906;8.404;2023-01-16T21:40:45;7.00;99.90
1411;DHT22;700;51.906;8.404;2023-01-16T21:45:48;7.40;99.90
1411;DHT22;700;51.906;8.404;2023-01-16T21:51:07;7.50;99.90
1411;DHT22;700;51.906;8.404;2023-01-16T21:56:08;7.30;99.90
1411;DHT22;700;51.906;8.404;2023-01-16T22:01:09;7.40;99.90
1411;DHT22;700;51.906;8.404;2023-01-16T22:06:09;7.40;99.90
1411;DHT22;700;51.906;8.404;2023-01-16T22:11:16;7.30;99.90
1411;DHT22;700;51.906;8.404;2023-01-16T22:16:35;7.50;99.90
1411;DHT22;700;51.906;8.404;2023-01-16T22:21:54;7.40;99.90
1411;DHT22;700;51.906;8.404;2023-01-16T22:26:55;7.50;99.90
1411;DHT22;700;51.906;8.404;2023-01-16T22:31:56;7.50;99.90
1411;DHT22;700;51.906;8.404;2023-01-16T22:36:57;7.40;99.90
1411;DHT22;700;51.906;8.404;2023-01-16T22:42:00;7.60;99.90
1411;DHT22;700;51.906;8.404;2023-01-16T22:47:01;7.60;99.90
1411;DHT22;700;51.906;8.404;2023-01-16T22:52:06;7.60;99.90
1411;DHT22;700;51.906;8.404;2023-01-16T22:57:09;7.60;99.90
1411;DHT22;700;51.906;8.404;2023-01-16T23:02:12;7.50;99.90
1411;DHT22;700;51.906;8.404;2023-01-16T23:07:14;6.90;99.90
1411;DHT22;700;51.906;8.404;2023-01-16T23:12:14;7.10;99.90
1411;DHT22;700;51.906;8.404;2023-01-16T23:17:15;6.90;99.90
1411;DHT22;700;51.906;8.404;2023-01-16T23:22:15;6.80;99.90
1411;DHT22;700;51.906;8.404;2023-01-16T23:27:16;6.70;99.90
1411;DHT22;700;51.906;8.404;2023-01-16T23:32:19;6.70;99.90
1411;DHT22;700;51.906;8.404;2023-01-16T23:37:25;7.00;99.90
1411;DHT22;700;51.906;8.404;2023-01-16T23:42:28;6.90;99.90
1411;DHT22;700;51.906;8.404;2023-01-16T23:47:48;6.70;99.90
1411;DHT22;700;51.906;8.404;2023-01-16T23:52:50;6.60;99.90
1411;DHT22;700;51.906;8.404;2023-01-16T23:57:53;6.50;99.90
